sensor_id;sensor_type;location;lat;lon;timestamp;temperature;humidity
20081;DHT22;10200;49.232;9.222;2022-12-24T00:00:32;11.70;99.90
20081;DHT22;10200;49.232;9.222;2022-12-24T00:02:58;11.70;99.90
20081;DHT22;10200;49.232;9.222;2022-12-24T00:05:24;11.70;99.90
20081;DHT22;10200;49.232;9.222;2022-12-24T00:07:50;11.80;99.90
20081;DHT22;10200;49.232;9.222;2022-12-24T00:10:15;11.70;99.90
20081;DHT22;10200;49.232;9.222;2022-12-24T00:12:41;11.60;99.90
20081;DHT22;10200;49.232;9.222;2022-12-24T00:15:07;11.60;99.90
20081;DHT22;10200;49.232;9.222;2022-12-24T00:17:33;11.60;99.90
20081;DHT22;10200;49.232;9.222;2022-12-24T00:19:58;11.50;99.90
20081;DHT22;10200;49.232;9.222;2022-12-24T00:22:24;11.50;99.90
20081;DHT22;10200;49.232;9.222;2022-12-24T00:24:49;11.50;99.90
20081;DHT22;10200;49.232;9.222;2022-12-24T00:27:15;11.50;99.90
20081;DHT22;10200;49.232;9.222;2022-12-24T00:29:41;11.50;99.90
20081;DHT22;10200;49.232;9.222;2022-12-24T00:32:06;11.50;99.90
20081;DHT22;10200;49.232;9.222;2022-12-24T00:34:35;11.50;99.90
20081;DHT22;10200;49.232;9.222;2022-12-24T00:37:01;11.50;99.90
20081;DHT22;10200;49.232;9.222;2022-12-24T00:39:26;11.50;99.90
20081;DHT22;10200;49.232;9.222;2022-12-24T00:41:52;11.50;99.90
20081;DHT22;10200;49.232;9.222;2022-12-24T00:44:17;11.50;99.90
20081;DHT22;10200;49.232;9.222;2022-12-24T00:46:43;11.40;99.90
20081;DHT22;10200;49.232;9.222;2022-12-24T00:49:10;11.40;99.90
20081;DHT22;10200;49.232;9.222;2022-12-24T00:51:36;11.40;99.90
20081;DHT22;10200;49.232;9.222;2022-12-24T00:54:02;11.30;99.90
20081;DHT22;10200;49.232;9.222;2022-12-24T00:56:28;11.30;99.90
20081;DHT22;10200;49.232;9.222;2022-12-24T00:58:54;11.30;99.90
20081;DHT22;10200;49.232;9.222;2022-12-24T01:01:22;11.30;99.90
20081;DHT22;10200;49.232;9.222;2022-12-24T01:03:48;11.30;99.90
20081;DHT22;10200;49.232;9.222;2022-12-24T01:06:18;11.20;99.90
20081;DHT22;10200;49.232;9.222;2022-12-24T01:08:44;11.20;99.90
20081;DHT22;10200;49.232;9.222;2022-12-24T01:11:11;11.20;99.90
20081;DHT22;10200;49.232;9.222;2022-12-24T01:13:38;11.20;99.90
20081;DHT22;10200;49.232;9.222;2022-12-24T01:16:13;11.20;99.90
20081;DHT22;10200;49.232;9.222;2022-12-24T01:18:38;11.30;99.90
20081;DHT22;10200;49.232;9.222;2022-12-24T01:21:04;11.30;99.90
20081;DHT22;10200;49.232;9.222;2022-12-24T01:23:30;11.20;99.90
20081;DHT22;10200;49.232;9.222;2022-12-24T01:25:59;11.30;99.90
20081;DHT22;10200;49.232;9.222;2022-12-24T01:28:25;11.30;99.90
20081;DHT22;10200;49.232;9.222;2022-12-24T01:30:51;11.30;99.90
20081;DHT22;10200;49.232;9.222;2022-12-24T01:33:17;11.30;99.90
20081;DHT22;10200;49.232;9.222;2022-12-24T01:35:42;11.30;99.90
20081;DHT22;10200;49.232;9.222;2022-12-24T01:38:10;11.30;99.90
20081;DHT22;10200;49.232;9.222;2022-12-24T01:40:37;11.30;99.90
20081;DHT22;10200;49.232;9.222;2022-12-24T01:43:24;11.30;99.90
20081;DHT22;10200;49.232;9.222;2022-12-24T01:45:57;11.30;99.90
20081;DHT22;10200;49.232;9.222;2022-12-24T01:48:48;11.20;99.90
20081;DHT22;10200;49.232;9.222;2022-12-24T01:51:39;11.20;99.90
20081;DHT22;10200;49.232;9.222;2022-12-24T01:54:43;11.20;99.90
20081;DHT22;10200;49.232;9.222;2022-12-24T01:57:10;11.20;99.90
20081;DHT22;10200;49.232;9.222;2022-12-24T01:59:37;11.10;99.90
20081;DHT22;10200;49.232;9.222;2022-12-24T02:02:05;11.10;99.90
20081;DHT22;10200;49.232;9.222;2022-12-24T02:07:06;11.00;99.90
20081;DHT22;10200;49.232;9.222;2022-12-24T02:09:33;11.00;99.90
20081;DHT22;10200;49.232;9.222;2022-12-24T02:12:00;11.00;99.90
20081;DHT22;10200;49.232;9.222;2022-12-24T02:14:27;10.90;99.90
20081;DHT22;10200;49.232;9.222;2022-12-24T02:17:15;10.90;99.90
20081;DHT22;10200;49.232;9.222;2022-12-24T02:25:11;10.70;99.90
20081;DHT22;10200;49.232;9.222;2022-12-24T02:30:41;10.60;99.90
20081;DHT22;10200;49.232;9.222;2022-12-24T02:40:51;10.50;99.90
20081;DHT22;10200;49.232;9.222;2022-12-24T02:43:21;10.50;99.90
20081;DHT22;10200;49.232;9.222;2022-12-24T02:45:52;10.50;99.90
20081;DHT22;10200;49.232;9.222;2022-12-24T02:48:19;10.50;99.90
20081;DHT22;10200;49.232;9.222;2022-12-24T02:51:01;10.50;99.90
20081;DHT22;10200;49.232;9.222;2022-12-24T02:53:27;10.50;99.90
20081;DHT22;10200;49.232;9.222;2022-12-24T02:56:18;10.50;99.90
20081;DHT22;10200;49.232;9.222;2022-12-24T03:11:49;10.40;99.90
20081;DHT22;10200;49.232;9.222;2022-12-24T03:14:18;10.40;99.90
20081;DHT22;10200;49.232;9.222;2022-12-24T03:16:44;10.40;99.90
20081;DHT22;10200;49.232;9.222;2022-12-24T03:19:11;10.30;99.90
20081;DHT22;10200;49.232;9.222;2022-12-24T03:21:38;10.30;99.90
20081;DHT22;10200;49.232;9.222;2022-12-24T03:24:07;10.30;99.90
20081;DHT22;10200;49.232;9.222;2022-12-24T03:26:34;10.30;99.90
20081;DHT22;10200;49.232;9.222;2022-12-24T03:29:06;10.30;99.90
20081;DHT22;10200;49.232;9.222;2022-12-24T03:31:45;10.40;99.90
20081;DHT22;10200;49.232;9.222;2022-12-24T03:34:11;10.40;99.90
20081;DHT22;10200;49.232;9.222;2022-12-24T03:36:37;10.40;99.90
20081;DHT22;10200;49.232;9.222;2022-12-24T03:39:04;10.40;99.90
20081;DHT22;10200;49.232;9.222;2022-12-24T03:41:29;10.40;99.90
20081;DHT22;10200;49.232;9.222;2022-12-24T03:43:55;10.40;99.90
20081;DHT22;10200;49.232;9.222;2022-12-24T03:46:20;10.40;99.90
20081;DHT22;10200;49.232;9.222;2022-12-24T03:48:46;10.40;99.90
20081;DHT22;10200;49.232;9.222;2022-12-24T03:51:20;10.40;99.90
20081;DHT22;10200;49.232;9.222;2022-12-24T03:53:46;10.50;99.90
20081;DHT22;10200;49.232;9.222;2022-12-24T03:56:12;10.50;99.90
20081;DHT22;10200;49.232;9.222;2022-12-24T03:58:38;10.50;99.90
20081;DHT22;10200;49.232;9.222;2022-12-24T04:01:03;10.50;99.90
20081;DHT22;10200;49.232;9.222;2022-12-24T04:03:29;10.50;99.90
20081;DHT22;10200;49.232;9.222;2022-12-24T04:06:09;10.50;99.90
20081;DHT22;10200;49.232;9.222;2022-12-24T04:08:35;10.50;99.90
20081;DHT22;10200;49.232;9.222;2022-12-24T04:11:03;10.50;99.90
20081;DHT22;10200;49.232;9.222;2022-12-24T04:13:29;10.50;99.90
20081;DHT22;10200;49.232;9.222;2022-12-24T04:15:59;10.50;99.90
20081;DHT22;10200;49.232;9.222;2022-12-24T04:18:25;10.50;99.90
20081;DHT22;10200;49.232;9.222;2022-12-24T04:20:51;10.50;99.90
20081;DHT22;10200;49.232;9.222;2022-12-24T04:23:17;10.50;99.90
20081;DHT22;10200;49.232;9.222;2022-12-24T04:25:42;10.50;99.90
20081;DHT22;10200;49.232;9.222;2022-12-24T04:28:08;10.40;99.90
20081;DHT22;10200;49.232;9.222;2022-12-24T04:30:33;10.40;99.90
20081;DHT22;10200;49.232;9.222;2022-12-24T04:32:59;10.40;99.90
20081;DHT22;10200;49.232;9.222;2022-12-24T04:35:25;10.40;99.90
20081;DHT22;10200;49.232;9.222;2022-12-24T04:37:50;10.40;99.90
20081;DHT22;10200;49.232;9.222;2022-12-24T04:40:16;10.40;99.90
20081;DHT22;10200;49.232;9.222;2022-12-24T04:42:41;10.40;99.90
20081;DHT22;10200;49.232;9.222;2022-12-24T04:45:07;10.40;99.90
20081;DHT22;10200;49.232;9.222;2022-12-24T04:47:33;10.40;99.90
20081;DHT22;10200;49.232;9.222;2022-12-24T04:49:58;10.40;99.90
20081;DHT22;10200;49.232;9.222;2022-12-24T04:52:26;10.30;99.90
20081;DHT22;10200;49.232;9.222;2022-12-24T04:54:51;10.40;99.90
20081;DHT22;10200;49.232;9.222;2022-12-24T04:57:17;10.30;99.90
20081;DHT22;10200;49.232;9.222;2022-12-24T04:59:42;10.30;99.90
20081;DHT22;10200;49.232;9.222;2022-12-24T05:02:08;10.30;99.90
20081;DHT22;10200;49.232;9.222;2022-12-24T05:04:34;10.40;99.90
20081;DHT22;10200;49.232;9.222;2022-12-24T05:07:00;10.40;99.90
20081;DHT22;10200;49.232;9.222;2022-12-24T05:09:25;10.40;99.90
20081;DHT22;10200;49.232;9.222;2022-12-24T05:11:51;10.40;99.90
20081;DHT22;10200;49.232;9.222;2022-12-24T05:14:16;10.40;99.90
20081;DHT22;10200;49.232;9.222;2022-12-24T05:16:42;10.50;99.90
20081;DHT22;10200;49.232;9.222;2022-12-24T05:19:08;10.50;99.90
20081;DHT22;10200;49.232;9.222;2022-12-24T05:21:34;10.50;99.90
20081;DHT22;10200;49.232;9.222;2022-12-24T05:24:00;10.50;99.90
20081;DHT22;10200;49.232;9.222;2022-12-24T05:26:57;10.50;99.90
20081;DHT22;10200;49.232;9.222;2022-12-24T05:29:23;10.60;99.90
20081;DHT22;10200;49.232;9.222;2022-12-24T05:31:49;10.60;99.90
20081;DHT22;10200;49.232;9.222;2022-12-24T05:34:15;10.60;99.90
20081;DHT22;10200;49.232;9.222;2022-12-24T05:36:41;10.60;99.90
20081;DHT22;10200;49.232;9.222;2022-12-24T05:39:08;10.60;99.90
20081;DHT22;10200;49.232;9.222;2022-12-24T05:41:34;10.60;99.90
20081;DHT22;10200;49.232;9.222;2022-12-24T05:44:00;10.60;99.90
20081;DHT22;10200;49.232;9.222;2022-12-24T05:46:25;10.50;99.90
20081;DHT22;10200;49.232;9.222;2022-12-24T05:48:52;10.50;99.90
20081;DHT22;10200;49.232;9.222;2022-12-24T05:51:19;10.50;99.90
20081;DHT22;10200;49.232;9.222;2022-12-24T05:53:47;10.50;99.90
20081;DHT22;10200;49.232;9.222;2022-12-24T05:56:19;10.50;99.90
20081;DHT22;10200;49.232;9.222;2022-12-24T05:58:45;10.50;99.90
20081;DHT22;10200;49.232;9.222;2022-12-24T06:01:12;10.50;99.90
20081;DHT22;10200;49.232;9.222;2022-12-24T06:03:37;10.50;99.90
20081;DHT22;10200;49.232;9.222;2022-12-24T06:08:34;10.40;99.90
20081;DHT22;10200;49.232;9.222;2022-12-24T06:11:02;10.40;99.90
20081;DHT22;10200;49.232;9.222;2022-12-24T06:13:29;10.40;99.90
20081;DHT22;10200;49.232;9.222;2022-12-24T06:15:59;10.40;99.90
20081;DHT22;10200;49.232;9.222;2022-12-24T06:18:25;10.40;99.90
20081;DHT22;10200;49.232;9.222;2022-12-24T06:20:54;10.50;99.90
20081;DHT22;10200;49.232;9.222;2022-12-24T06:23:20;10.50;99.90
20081;DHT22;10200;49.232;9.222;2022-12-24T06:25:46;10.50;99.90
20081;DHT22;10200;49.232;9.222;2022-12-24T06:28:13;10.60;99.90
20081;DHT22;10200;49.232;9.222;2022-12-24T06:30:39;10.60;99.90
20081;DHT22;10200;49.232;9.222;2022-12-24T06:33:04;10.60;99.90
20081;DHT22;10200;49.232;9.222;2022-12-24T06:35:31;10.70;99.90
20081;DHT22;10200;49.232;9.222;2022-12-24T06:37:56;10.70;99.90
20081;DHT22;10200;49.232;9.222;2022-12-24T06:40:22;10.70;99.90
20081;DHT22;10200;49.232;9.222;2022-12-24T06:42:47;10.70;99.90
20081;DHT22;10200;49.232;9.222;2022-12-24T06:45:13;10.70;99.90
20081;DHT22;10200;49.232;9.222;2022-12-24T06:47:38;10.70;99.90
20081;DHT22;10200;49.232;9.222;2022-12-24T06:50:05;10.60;99.90
20081;DHT22;10200;49.232;9.222;2022-12-24T06:52:30;10.60;99.90
20081;DHT22;10200;49.232;9.222;2022-12-24T06:54:56;10.60;99.90
20081;DHT22;10200;49.232;9.222;2022-12-24T06:57:22;10.60;99.90
20081;DHT22;10200;49.232;9.222;2022-12-24T06:59:48;10.60;99.90
20081;DHT22;10200;49.232;9.222;2022-12-24T07:02:13;10.60;99.90
20081;DHT22;10200;49.232;9.222;2022-12-24T07:04:39;10.60;99.90
20081;DHT22;10200;49.232;9.222;2022-12-24T07:07:05;10.60;99.90
20081;DHT22;10200;49.232;9.222;2022-12-24T07:09:30;10.60;99.90
20081;DHT22;10200;49.232;9.222;2022-12-24T07:11:56;10.60;99.90
20081;DHT22;10200;49.232;9.222;2022-12-24T07:14:22;10.60;99.90
20081;DHT22;10200;49.232;9.222;2022-12-24T07:16:47;10.60;99.90
20081;DHT22;10200;49.232;9.222;2022-12-24T07:19:14;10.60;99.90
20081;DHT22;10200;49.232;9.222;2022-12-24T07:21:39;10.60;99.90
20081;DHT22;10200;49.232;9.222;2022-12-24T07:24:05;10.60;99.90
20081;DHT22;10200;49.232;9.222;2022-12-24T07:26:31;10.60;99.90
20081;DHT22;10200;49.232;9.222;2022-12-24T07:28:56;10.60;99.90
20081;DHT22;10200;49.232;9.222;2022-12-24T07:31:22;10.60;99.90
20081;DHT22;10200;49.232;9.222;2022-12-24T07:33:48;10.60;99.90
20081;DHT22;10200;49.232;9.222;2022-12-24T07:36:18;10.60;99.90
20081;DHT22;10200;49.232;9.222;2022-12-24T07:38:44;10.60;99.90
20081;DHT22;10200;49.232;9.222;2022-12-24T07:41:09;10.70;99.90
20081;DHT22;10200;49.232;9.222;2022-12-24T07:43:35;10.70;99.90
20081;DHT22;10200;49.232;9.222;2022-12-24T07:46:01;10.70;99.90
20081;DHT22;10200;49.232;9.222;2022-12-24T07:48:28;10.70;99.90
20081;DHT22;10200;49.232;9.222;2022-12-24T07:50:54;10.70;99.90
20081;DHT22;10200;49.232;9.222;2022-12-24T07:53:20;10.70;99.90
20081;DHT22;10200;49.232;9.222;2022-12-24T07:55:46;10.70;99.90
20081;DHT22;10200;49.232;9.222;2022-12-24T07:58:11;10.70;99.90
20081;DHT22;10200;49.232;9.222;2022-12-24T08:00:37;10.80;99.90
20081;DHT22;10200;49.232;9.222;2022-12-24T08:03:03;10.80;99.90
20081;DHT22;10200;49.232;9.222;2022-12-24T08:05:34;10.70;99.90
20081;DHT22;10200;49.232;9.222;2022-12-24T08:08:00;10.70;99.90
20081;DHT22;10200;49.232;9.222;2022-12-24T08:10:26;10.80;99.90
20081;DHT22;10200;49.232;9.222;2022-12-24T08:12:52;10.80;99.90
20081;DHT22;10200;49.232;9.222;2022-12-24T08:15:17;10.80;99.90
20081;DHT22;10200;49.232;9.222;2022-12-24T08:17:43;10.80;99.90
20081;DHT22;10200;49.232;9.222;2022-12-24T08:20:10;10.80;99.90
20081;DHT22;10200;49.232;9.222;2022-12-24T08:22:36;10.80;99.90
20081;DHT22;10200;49.232;9.222;2022-12-24T08:25:01;10.90;99.90
20081;DHT22;10200;49.232;9.222;2022-12-24T08:27:27;10.90;99.90
20081;DHT22;10200;49.232;9.222;2022-12-24T08:29:52;10.90;99.90
20081;DHT22;10200;49.232;9.222;2022-12-24T08:32:18;11.00;99.90
20081;DHT22;10200;49.232;9.222;2022-12-24T08:34:43;11.10;99.90
20081;DHT22;10200;49.232;9.222;2022-12-24T08:37:09;11.20;99.90
20081;DHT22;10200;49.232;9.222;2022-12-24T08:39:34;11.30;99.90
20081;DHT22;10200;49.232;9.222;2022-12-24T08:42:00;11.30;99.90
20081;DHT22;10200;49.232;9.222;2022-12-24T08:44:25;11.30;99.90
20081;DHT22;10200;49.232;9.222;2022-12-24T08:46:51;11.30;99.90
20081;DHT22;10200;49.232;9.222;2022-12-24T08:49:16;11.30;99.90
20081;DHT22;10200;49.232;9.222;2022-12-24T08:51:42;11.30;99.90
20081;DHT22;10200;49.232;9.222;2022-12-24T08:54:08;11.30;99.90
20081;DHT22;10200;49.232;9.222;2022-12-24T08:56:33;11.40;99.90
20081;DHT22;10200;49.232;9.222;2022-12-24T08:59:00;11.50;99.90
20081;DHT22;10200;49.232;9.222;2022-12-24T09:01:25;11.60;99.90
20081;DHT22;10200;49.232;9.222;2022-12-24T09:03:51;11.80;99.90
20081;DHT22;10200;49.232;9.222;2022-12-24T09:06:16;12.00;99.90
20081;DHT22;10200;49.232;9.222;2022-12-24T09:08:42;12.00;99.90
20081;DHT22;10200;49.232;9.222;2022-12-24T09:11:14;12.00;99.90
20081;DHT22;10200;49.232;9.222;2022-12-24T09:13:40;12.00;99.90
20081;DHT22;10200;49.232;9.222;2022-12-24T09:16:07;12.00;99.90
20081;DHT22;10200;49.232;9.222;2022-12-24T09:18:33;12.00;99.90
20081;DHT22;10200;49.232;9.222;2022-12-24T09:21:00;12.00;99.90
20081;DHT22;10200;49.232;9.222;2022-12-24T09:23:27;12.10;99.90
20081;DHT22;10200;49.232;9.222;2022-12-24T09:25:52;12.20;99.90
20081;DHT22;10200;49.232;9.222;2022-12-24T09:28:18;12.30;99.90
20081;DHT22;10200;49.232;9.222;2022-12-24T09:30:44;12.50;99.90
20081;DHT22;10200;49.232;9.222;2022-12-24T09:33:09;12.50;99.90
20081;DHT22;10200;49.232;9.222;2022-12-24T09:35:37;12.40;99.90
20081;DHT22;10200;49.232;9.222;2022-12-24T09:38:03;12.30;99.90
20081;DHT22;10200;49.232;9.222;2022-12-24T09:40:36;12.30;99.90
20081;DHT22;10200;49.232;9.222;2022-12-24T09:43:12;12.30;99.90
20081;DHT22;10200;49.232;9.222;2022-12-24T09:45:43;12.20;99.90
20081;DHT22;10200;49.232;9.222;2022-12-24T09:48:26;12.20;99.90
20081;DHT22;10200;49.232;9.222;2022-12-24T09:51:20;12.20;99.90
20081;DHT22;10200;49.232;9.222;2022-12-24T09:56:25;12.10;99.90
20081;DHT22;10200;49.232;9.222;2022-12-24T09:59:02;12.20;99.90
20081;DHT22;10200;49.232;9.222;2022-12-24T10:01:30;12.20;99.90
20081;DHT22;10200;49.232;9.222;2022-12-24T10:04:03;12.20;99.90
20081;DHT22;10200;49.232;9.222;2022-12-24T10:07:01;12.20;99.90
20081;DHT22;10200;49.232;9.222;2022-12-24T10:12:41;12.10;99.90
20081;DHT22;10200;49.232;9.222;2022-12-24T10:15:30;12.10;99.90
20081;DHT22;10200;49.232;9.222;2022-12-24T10:20:35;12.20;99.90
20081;DHT22;10200;49.232;9.222;2022-12-24T10:28:27;12.20;99.90
20081;DHT22;10200;49.232;9.222;2022-12-24T10:31:00;12.20;99.90
20081;DHT22;10200;49.232;9.222;2022-12-24T10:33:37;12.10;99.90
20081;DHT22;10200;49.232;9.222;2022-12-24T10:36:07;12.10;99.90
20081;DHT22;10200;49.232;9.222;2022-12-24T10:38:35;12.00;99.90
20081;DHT22;10200;49.232;9.222;2022-12-24T10:41:01;12.00;99.90
20081;DHT22;10200;49.232;9.222;2022-12-24T10:43:28;12.00;99.90
20081;DHT22;10200;49.232;9.222;2022-12-24T10:45:56;12.00;99.90
20081;DHT22;10200;49.232;9.222;2022-12-24T10:48:54;12.00;99.90
20081;DHT22;10200;49.232;9.222;2022-12-24T10:54:20;12.10;99.90
20081;DHT22;10200;49.232;9.222;2022-12-24T10:56:50;12.10;99.90
20081;DHT22;10200;49.232;9.222;2022-12-24T10:59:35;12.10;99.90
20081;DHT22;10200;49.232;9.222;2022-12-24T11:02:01;12.20;99.90
20081;DHT22;10200;49.232;9.222;2022-12-24T11:04:29;12.20;99.90
20081;DHT22;10200;49.232;9.222;2022-12-24T11:09:33;12.20;99.90
20081;DHT22;10200;49.232;9.222;2022-12-24T11:12:02;12.20;99.90
20081;DHT22;10200;49.232;9.222;2022-12-24T11:14:33;12.10;99.90
20081;DHT22;10200;49.232;9.222;2022-12-24T11:16:59;12.10;99.90
20081;DHT22;10200;49.232;9.222;2022-12-24T11:19:30;12.00;99.90
20081;DHT22;10200;49.232;9.222;2022-12-24T11:22:05;11.90;99.90
20081;DHT22;10200;49.232;9.222;2022-12-24T11:24:33;11.90;99.90
20081;DHT22;10200;49.232;9.222;2022-12-24T11:27:23;11.90;99.90
20081;DHT22;10200;49.232;9.222;2022-12-24T11:29:49;11.90;99.90
20081;DHT22;10200;49.232;9.222;2022-12-24T11:32:20;12.00;99.90
20081;DHT22;10200;49.232;9.222;2022-12-24T11:34:46;12.00;99.90
20081;DHT22;10200;49.232;9.222;2022-12-24T11:37:23;11.90;99.90
20081;DHT22;10200;49.232;9.222;2022-12-24T11:40:00;11.90;99.90
20081;DHT22;10200;49.232;9.222;2022-12-24T11:44:54;11.90;99.90
20081;DHT22;10200;49.232;9.222;2022-12-24T11:47:36;11.90;99.90
20081;DHT22;10200;49.232;9.222;2022-12-24T11:58:26;11.90;99.90
20081;DHT22;10200;49.232;9.222;2022-12-24T12:08:59;12.00;99.90
20081;DHT22;10200;49.232;9.222;2022-12-24T12:11:26;12.00;99.90
20081;DHT22;10200;49.232;9.222;2022-12-24T12:13:54;12.00;99.90
20081;DHT22;10200;49.232;9.222;2022-12-24T12:16:29;12.10;99.90
20081;DHT22;10200;49.232;9.222;2022-12-24T12:19:18;12.10;99.90
20081;DHT22;10200;49.232;9.222;2022-12-24T12:21:46;12.20;99.90
20081;DHT22;10200;49.232;9.222;2022-12-24T12:24:29;12.20;99.90
20081;DHT22;10200;49.232;9.222;2022-12-24T12:27:18;12.20;99.90
20081;DHT22;10200;49.232;9.222;2022-12-24T12:29:55;12.20;99.90
20081;DHT22;10200;49.232;9.222;2022-12-24T12:32:34;12.20;99.90
20081;DHT22;10200;49.232;9.222;2022-12-24T12:35:12;12.20;99.90
20081;DHT22;10200;49.232;9.222;2022-12-24T12:37:43;12.20;99.90
20081;DHT22;10200;49.232;9.222;2022-12-24T12:40:14;12.20;99.90
20081;DHT22;10200;49.232;9.222;2022-12-24T12:43:00;12.30;99.90
20081;DHT22;10200;49.232;9.222;2022-12-24T12:48:45;12.30;99.90
20081;DHT22;10200;49.232;9.222;2022-12-24T12:51:27;12.20;99.90
20081;DHT22;10200;49.232;9.222;2022-12-24T12:54:18;12.20;99.90
20081;DHT22;10200;49.232;9.222;2022-12-24T12:56:52;12.20;99.90
20081;DHT22;10200;49.232;9.222;2022-12-24T13:02:24;12.30;99.90
20081;DHT22;10200;49.232;9.222;2022-12-24T13:05:18;12.30;99.90
20081;DHT22;10200;49.232;9.222;2022-12-24T13:21:21;12.40;99.90
20081;DHT22;10200;49.232;9.222;2022-12-24T13:23:48;12.40;99.90
20081;DHT22;10200;49.232;9.222;2022-12-24T13:26:14;12.40;99.90
20081;DHT22;10200;49.232;9.222;2022-12-24T13:28:41;12.40;99.90
20081;DHT22;10200;49.232;9.222;2022-12-24T13:36:14;12.40;99.90
20081;DHT22;10200;49.232;9.222;2022-12-24T13:38:47;12.40;99.90
20081;DHT22;10200;49.232;9.222;2022-12-24T13:46:54;12.30;99.90
20081;DHT22;10200;49.232;9.222;2022-12-24T13:49:40;12.30;99.90
20081;DHT22;10200;49.232;9.222;2022-12-24T13:52:17;12.30;99.90
20081;DHT22;10200;49.232;9.222;2022-12-24T13:55:06;12.30;99.90
20081;DHT22;10200;49.232;9.222;2022-12-24T13:57:52;12.30;99.90
20081;DHT22;10200;49.232;9.222;2022-12-24T14:05:37;12.10;99.90
20081;DHT22;10200;49.232;9.222;2022-12-24T14:08:07;12.10;99.90
20081;DHT22;10200;49.232;9.222;2022-12-24T14:16:29;12.00;99.90
20081;DHT22;10200;49.232;9.222;2022-12-24T14:19:18;12.10;99.90
20081;DHT22;10200;49.232;9.222;2022-12-24T14:21:50;12.10;99.90
20081;DHT22;10200;49.232;9.222;2022-12-24T14:24:21;12.20;99.90
20081;DHT22;10200;49.232;9.222;2022-12-24T14:26:55;12.20;99.90
20081;DHT22;10200;49.232;9.222;2022-12-24T14:29:31;12.20;99.90
20081;DHT22;10200;49.232;9.222;2022-12-24T14:31:59;12.10;99.90
20081;DHT22;10200;49.232;9.222;2022-12-24T14:34:28;12.10;99.90
20081;DHT22;10200;49.232;9.222;2022-12-24T14:37:02;12.10;99.90
20081;DHT22;10200;49.232;9.222;2022-12-24T14:39:33;12.10;99.90
20081;DHT22;10200;49.232;9.222;2022-12-24T14:53:22;12.00;99.90
20081;DHT22;10200;49.232;9.222;2022-12-24T14:55:50;11.90;99.90
20081;DHT22;10200;49.232;9.222;2022-12-24T15:00:46;11.80;99.90
20081;DHT22;10200;49.232;9.222;2022-12-24T15:03:14;11.80;99.90
20081;DHT22;10200;49.232;9.222;2022-12-24T15:05:40;11.70;99.90
20081;DHT22;10200;49.232;9.222;2022-12-24T15:08:18;11.70;99.90
20081;DHT22;10200;49.232;9.222;2022-12-24T15:10:53;11.60;99.90
20081;DHT22;10200;49.232;9.222;2022-12-24T15:15:46;11.60;99.90
20081;DHT22;10200;49.232;9.222;2022-12-24T15:18:18;11.50;99.90
20081;DHT22;10200;49.232;9.222;2022-12-24T15:20:48;11.50;99.90
20081;DHT22;10200;49.232;9.222;2022-12-24T15:23:27;11.50;99.90
20081;DHT22;10200;49.232;9.222;2022-12-24T15:26:15;11.50;99.90
20081;DHT22;10200;49.232;9.222;2022-12-24T15:28:41;11.50;99.90
20081;DHT22;10200;49.232;9.222;2022-12-24T15:31:11;11.40;99.90
20081;DHT22;10200;49.232;9.222;2022-12-24T15:33:37;11.40;99.90
20081;DHT22;10200;49.232;9.222;2022-12-24T15:36:04;11.40;99.90
20081;DHT22;10200;49.232;9.222;2022-12-24T15:38:34;11.40;99.90
20081;DHT22;10200;49.232;9.222;2022-12-24T15:41:02;11.40;99.90
20081;DHT22;10200;49.232;9.222;2022-12-24T15:43:29;11.40;99.90
20081;DHT22;10200;49.232;9.222;2022-12-24T15:45:55;11.40;99.90
20081;DHT22;10200;49.232;9.222;2022-12-24T15:48:23;11.40;99.90
20081;DHT22;10200;49.232;9.222;2022-12-24T15:50:58;11.40;99.90
20081;DHT22;10200;49.232;9.222;2022-12-24T15:53:36;11.30;99.90
20081;DHT22;10200;49.232;9.222;2022-12-24T15:56:10;11.30;99.90
20081;DHT22;10200;49.232;9.222;2022-12-24T15:58:43;11.30;99.90
20081;DHT22;10200;49.232;9.222;2022-12-24T16:03:39;11.20;99.90
20081;DHT22;10200;49.232;9.222;2022-12-24T16:06:09;11.20;99.90
20081;DHT22;10200;49.232;9.222;2022-12-24T16:08:39;11.20;99.90
20081;DHT22;10200;49.232;9.222;2022-12-24T16:11:17;11.10;99.90
20081;DHT22;10200;49.232;9.222;2022-12-24T16:16:18;11.00;99.90
20081;DHT22;10200;49.232;9.222;2022-12-24T16:21:28;11.00;99.90
20081;DHT22;10200;49.232;9.222;2022-12-24T16:23:57;11.00;99.90
20081;DHT22;10200;49.232;9.222;2022-12-24T16:26:23;11.00;99.90
20081;DHT22;10200;49.232;9.222;2022-12-24T16:28:49;10.90;99.90
20081;DHT22;10200;49.232;9.222;2022-12-24T16:31:27;10.90;99.90
20081;DHT22;10200;49.232;9.222;2022-12-24T16:33:54;10.90;99.90
20081;DHT22;10200;49.232;9.222;2022-12-24T16:36:21;10.90;99.90
20081;DHT22;10200;49.232;9.222;2022-12-24T16:38:47;10.90;99.90
20081;DHT22;10200;49.232;9.222;2022-12-24T16:41:31;10.90;99.90
20081;DHT22;10200;49.232;9.222;2022-12-24T16:44:17;10.90;99.90
20081;DHT22;10200;49.232;9.222;2022-12-24T16:46:42;10.90;99.90
20081;DHT22;10200;49.232;9.222;2022-12-24T16:49:15;10.90;99.90
20081;DHT22;10200;49.232;9.222;2022-12-24T16:51:40;10.80;99.90
20081;DHT22;10200;49.232;9.222;2022-12-24T16:54:08;10.90;99.90
20081;DHT22;10200;49.232;9.222;2022-12-24T16:56:35;10.80;99.90
20081;DHT22;10200;49.232;9.222;2022-12-24T16:59:00;10.80;99.90
20081;DHT22;10200;49.232;9.222;2022-12-24T17:01:26;10.80;99.90
20081;DHT22;10200;49.232;9.222;2022-12-24T17:03:51;10.70;99.90
20081;DHT22;10200;49.232;9.222;2022-12-24T17:06:17;10.70;99.90
20081;DHT22;10200;49.232;9.222;2022-12-24T17:08:42;10.70;99.90
20081;DHT22;10200;49.232;9.222;2022-12-24T17:11:08;10.60;99.90
20081;DHT22;10200;49.232;9.222;2022-12-24T17:13:33;10.50;99.90
20081;DHT22;10200;49.232;9.222;2022-12-24T17:16:00;10.50;99.90
20081;DHT22;10200;49.232;9.222;2022-12-24T17:18:26;10.40;99.90
20081;DHT22;10200;49.232;9.222;2022-12-24T17:20:59;10.40;99.90
20081;DHT22;10200;49.232;9.222;2022-12-24T17:23:25;10.40;99.90
20081;DHT22;10200;49.232;9.222;2022-12-24T17:25:51;10.40;99.90
20081;DHT22;10200;49.232;9.222;2022-12-24T17:28:17;10.40;99.90
20081;DHT22;10200;49.232;9.222;2022-12-24T17:30:42;10.40;99.90
20081;DHT22;10200;49.232;9.222;2022-12-24T17:33:08;10.40;99.90
20081;DHT22;10200;49.232;9.222;2022-12-24T17:35:39;10.40;99.90
20081;DHT22;10200;49.232;9.222;2022-12-24T17:38:04;10.30;99.90
20081;DHT22;10200;49.232;9.222;2022-12-24T17:40:30;10.40;99.90
20081;DHT22;10200;49.232;9.222;2022-12-24T17:42:55;10.40;99.90
20081;DHT22;10200;49.232;9.222;2022-12-24T17:45:21;10.30;99.90
20081;DHT22;10200;49.232;9.222;2022-12-24T17:47:47;10.30;99.90
20081;DHT22;10200;49.232;9.222;2022-12-24T17:50:13;10.30;99.90
20081;DHT22;10200;49.232;9.222;2022-12-24T17:52:38;10.30;99.90
20081;DHT22;10200;49.232;9.222;2022-12-24T17:55:04;10.30;99.90
20081;DHT22;10200;49.232;9.222;2022-12-24T17:57:30;10.30;99.90
20081;DHT22;10200;49.232;9.222;2022-12-24T17:59:55;10.30;99.90